Weather at Bovec Airfield

Public forecast

Using degrees Celsius for public forecast. Weather courtesy of forecast.io.

Closest aviation weather report (METAR) to Bovec Airfield

Closest report is Udine-Rivolto Air Base, 29.6 nm (54.8 km) SW.

2024/05/22 22:55 (retrieved 1 hour ago)

LIPI 222255Z 01003KT 9999 FEW070 14/12 Q1014

Closest aviation forecast (TAF) to Bovec Airfield

Closest forecast is Bolzano Airport, 92.4 nm (171.2 km) W.

2024/05/22 18:13 (retrieved 6 hours ago)

TAF LIPB 222105Z 2218/2318 CNL